PWSweather.com
Personal Weather Stations
Station Observations
WXGLH1124
Southern Oaks, Indianapolis, IN 46217

Southern OaksIndianapolis, IN 46217

Lat: 39.65113, Lon: -86.16866

Elevation: 720

Station Type: Vantage Pro2

High Low Average
Temperature 60.6°F15.9°C 26.1°F-3.3°C 47.0°F8.3°C
Dew Point 58.6°F14.8°C 19.9°F-6.7°C 44.6°F7.0°C
Winds 14.0 mph 22.5 kmh Calm Calm 3.0 mph S4.8 kmh S
Wind Gusts 25.0 mph40.2 kmh -- 6.0 mph9.7 kmh
Humidity 94% 77% 91%
Pressure 30.12 in1020.0 mb 29.61 in1002.7 mb -
Precipitation 0.00 in0.0 mm - -
Hour Temp Dew Point Humidity Winds Wind Gusts Pressure Precip Precip Rate Daily Precip Total
12:00 AM 45.8°F7.7°C 43.9°F6.6°C 93% Calm Calm 4.0 mph6.4 kmh 29.94 in1013.9 mb 0.05 in1.3 mm 0.00 in0.0 mm 0.05 in1.3 mm
12:05 AM 45.7°F7.6°C 43.8°F6.6°C 93% Calm Calm 2.0 mph3.2 kmh 29.94 in1013.9 mb 0.05 in1.3 mm 0.00 in0.0 mm 0.05 in1.3 mm
12:10 AM 45.7°F7.6°C 43.8°F6.6°C 93% Calm Calm 3.0 mph4.8 kmh 29.93 in1013.5 mb 0.05 in1.3 mm 0.00 in0.0 mm 0.05 in1.3 mm
12:15 AM 45.8°F7.7°C 43.9°F6.6°C 93% 1.0 mph S1.6 kmh S 5.0 mph8.0 kmh 29.93 in1013.5 mb 0.05 in1.3 mm 0.00 in0.0 mm 0.05 in1.3 mm
12:20 AM 45.9°F7.7°C 44.3°F6.8°C 94% Calm Calm 3.0 mph4.8 kmh 29.94 in1013.9 mb 0.04 in1.0 mm 0.00 in0.0 mm 0.05 in1.3 mm
12:25 AM 46.0°F7.8°C 44.1°F6.7°C 93% Calm Calm 2.0 mph3.2 kmh 29.94 in1013.9 mb 0.05 in1.3 mm 0.12 in3.0 mm 0.06 in1.5 mm
12:29 AM 46.2°F7.9°C 44.3°F6.8°C 93% Calm Calm 2.0 mph3.2 kmh 29.95 in1014.2 mb 0.04 in1.0 mm 0.00 in0.0 mm 0.06 in1.5 mm
12:35 AM 46.3°F7.9°C 44.4°F6.9°C 93% Calm Calm -- 29.94 in1013.9 mb 0.04 in1.0 mm 0.00 in0.0 mm 0.06 in1.5 mm
12:40 AM 46.2°F7.9°C 44.3°F6.8°C 93% Calm Calm -- 29.95 in1014.2 mb 0.03 in0.8 mm 0.00 in0.0 mm 0.06 in1.5 mm
12:45 AM 46.2°F7.9°C 44.3°F6.8°C 93% Calm Calm -- 29.95 in1014.2 mb 0.03 in0.8 mm 0.00 in0.0 mm 0.06 in1.5 mm
12:50 AM 46.3°F7.9°C 44.4°F6.9°C 93% Calm Calm -- 29.95 in1014.2 mb 0.03 in0.8 mm 0.00 in0.0 mm 0.06 in1.5 mm
12:55 AM 46.2°F7.9°C 44.3°F6.8°C 93% Calm Calm -- 29.95 in1014.2 mb 0.02 in0.5 mm 0.00 in0.0 mm 0.06 in1.5 mm
12:59 AM 46.1°F7.8°C 44.2°F6.8°C 93% Calm Calm -- 29.96 in1014.6 mb 0.02 in0.5 mm 0.00 in0.0 mm 0.06 in1.5 mm
01:05 AM 46.0°F7.8°C 44.1°F6.7°C 93% Calm Calm -- 29.97 in1014.9 mb 0.02 in0.5 mm 0.00 in0.0 mm 0.06 in1.5 mm
01:10 AM 46.0°F7.8°C 44.1°F6.7°C 93% Calm Calm -- 29.97 in1014.9 mb 0.01 in0.3 mm 0.00 in0.0 mm 0.06 in1.5 mm
01:14 AM 46.0°F7.8°C 44.1°F6.7°C 93% Calm Calm -- 29.97 in1014.9 mb 0.01 in0.3 mm 0.00 in0.0 mm 0.06 in1.5 mm
01:20 AM 45.9°F7.7°C 44.0°F6.7°C 93% Calm Calm -- 29.96 in1014.6 mb 0.01 in0.3 mm 0.00 in0.0 mm 0.06 in1.5 mm
01:25 AM 45.9°F7.7°C 44.0°F6.7°C 93% Calm Calm -- 29.96 in1014.6 mb 0.00 in0.0 mm 0.00 in0.0 mm 0.06 in1.5 mm
01:30 AM 45.9°F7.7°C 44.3°F6.8°C 94% Calm Calm -- 29.95 in1014.2 mb 0.00 in0.0 mm 0.00 in0.0 mm 0.06 in1.5 mm
01:35 AM 45.9°F7.7°C 44.0°F6.7°C 93% Calm Calm -- 29.95 in1014.2 mb 0.00 in0.0 mm 0.00 in0.0 mm 0.06 in1.5 mm
01:40 AM 45.9°F7.7°C 44.0°F6.7°C 93% Calm Calm -- 29.96 in1014.6 mb 0.00 in0.0 mm 0.00 in0.0 mm 0.06 in1.5 mm
01:45 AM 45.9°F7.7°C 44.0°F6.7°C 93% Calm Calm -- 29.96 in1014.6 mb 0.00 in0.0 mm 0.00 in0.0 mm 0.06 in1.5 mm
01:50 AM 45.9°F7.7°C 44.0°F6.7°C 93% Calm Calm -- 29.96 in1014.6 mb 0.00 in0.0 mm 0.00 in0.0 mm 0.06 in1.5 mm
01:54 AM 45.9°F7.7°C 44.0°F6.7°C 93% Calm Calm -- 29.95 in1014.2 mb 0.00 in0.0 mm 0.00 in0.0 mm 0.06 in1.5 mm
02:00 AM 45.8°F7.7°C 43.9°F6.6°C 93% Calm Calm -- 29.96 in1014.6 mb 0.00 in0.0 mm 0.00 in0.0 mm 0.06 in1.5 mm
02:05 AM 45.8°F7.7°C 43.9°F6.6°C 93% Calm Calm -- 29.96 in1014.6 mb 0.00 in0.0 mm 0.00 in0.0 mm 0.06 in1.5 mm
02:09 AM 45.8°F7.7°C 43.9°F6.6°C 93% Calm Calm -- 29.96 in1014.6 mb 0.00 in0.0 mm 0.00 in0.0 mm 0.06 in1.5 mm
02:15 AM 45.7°F7.6°C 43.8°F6.6°C 93% Calm Calm -- 29.96 in1014.6 mb 0.00 in0.0 mm 0.00 in0.0 mm 0.06 in1.5 mm
02:20 AM 45.8°F7.7°C 43.9°F6.6°C 93% Calm Calm -- 29.96 in1014.6 mb 0.00 in0.0 mm 0.00 in0.0 mm 0.06 in1.5 mm
02:25 AM 45.8°F7.7°C 43.9°F6.6°C 93% Calm Calm -- 29.95 in1014.2 mb 0.00 in0.0 mm 0.00 in0.0 mm 0.06 in1.5 mm
02:30 AM 45.7°F7.6°C 43.8°F6.6°C 93% Calm Calm -- 29.95 in1014.2 mb 0.00 in0.0 mm 0.00 in0.0 mm 0.06 in1.5 mm
02:35 AM 45.7°F7.6°C 43.8°F6.6°C 93% Calm Calm 1.0 mph1.6 kmh 29.93 in1013.5 mb 0.00 in0.0 mm 0.00 in0.0 mm 0.06 in1.5 mm
02:40 AM 45.5°F7.5°C 43.6°F6.4°C 93% Calm Calm -- 29.93 in1013.5 mb 0.00 in0.0 mm 0.00 in0.0 mm 0.06 in1.5 mm
02:45 AM 45.5°F7.5°C 43.6°F6.4°C 93% Calm Calm -- 29.92 in1013.2 mb 0.00 in0.0 mm 0.00 in0.0 mm 0.06 in1.5 mm
02:50 AM 45.6°F7.6°C 43.7°F6.5°C 93% Calm Calm 1.0 mph1.6 kmh 29.92 in1013.2 mb 0.00 in0.0 mm 0.00 in0.0 mm 0.06 in1.5 mm
02:54 AM 45.8°F7.7°C 43.9°F6.6°C 93% Calm Calm 1.0 mph1.6 kmh 29.92 in1013.2 mb 0.00 in0.0 mm 0.00 in0.0 mm 0.06 in1.5 mm
03:00 AM 46.0°F7.8°C 44.1°F6.7°C 93% Calm Calm -- 29.92 in1013.2 mb 0.00 in0.0 mm 0.00 in0.0 mm 0.06 in1.5 mm
03:05 AM 46.1°F7.8°C 44.2°F6.8°C 93% Calm Calm -- 29.93 in1013.5 mb 0.01 in0.3 mm 0.12 in3.0 mm 0.07 in1.8 mm
03:10 AM 46.3°F7.9°C 44.4°F6.9°C 93% Calm Calm -- 29.93 in1013.5 mb 0.01 in0.3 mm 0.00 in0.0 mm 0.07 in1.8 mm
03:15 AM 46.4°F8.0°C 44.5°F6.9°C 93% Calm Calm -- 29.92 in1013.2 mb 0.01 in0.3 mm 0.00 in0.0 mm 0.07 in1.8 mm
03:20 AM 46.5°F8.1°C 44.6°F7.0°C 93% Calm Calm -- 29.91 in1012.9 mb 0.01 in0.3 mm 0.00 in0.0 mm 0.07 in1.8 mm
03:25 AM 46.5°F8.1°C 44.6°F7.0°C 93% Calm Calm -- 29.91 in1012.9 mb 0.01 in0.3 mm 0.00 in0.0 mm 0.07 in1.8 mm
03:30 AM 46.5°F8.1°C 44.6°F7.0°C 93% Calm Calm -- 29.92 in1013.2 mb 0.01 in0.3 mm 0.00 in0.0 mm 0.07 in1.8 mm
03:35 AM 46.5°F8.1°C 44.6°F7.0°C 93% Calm Calm -- 29.92 in1013.2 mb 0.01 in0.3 mm 0.00 in0.0 mm 0.07 in1.8 mm
03:39 AM 46.5°F8.1°C 44.6°F7.0°C 93% Calm Calm -- 29.92 in1013.2 mb 0.01 in0.3 mm 0.00 in0.0 mm 0.07 in1.8 mm
03:45 AM 46.4°F8.0°C 44.5°F6.9°C 93% Calm Calm 1.0 mph1.6 kmh 29.92 in1013.2 mb 0.01 in0.3 mm 0.00 in0.0 mm 0.07 in1.8 mm
03:50 AM 46.4°F8.0°C 44.5°F6.9°C 93% Calm Calm -- 29.93 in1013.5 mb 0.01 in0.3 mm 0.00 in0.0 mm 0.07 in1.8 mm
03:55 AM 46.3°F7.9°C 44.4°F6.9°C 93% Calm Calm -- 29.93 in1013.5 mb 0.01 in0.3 mm 0.00 in0.0 mm 0.07 in1.8 mm
04:00 AM 46.2°F7.9°C 44.3°F6.8°C 93% Calm Calm -- 29.93 in1013.5 mb 0.01 in0.3 mm 0.00 in0.0 mm 0.07 in1.8 mm
04:05 AM 46.1°F7.8°C 44.2°F6.8°C 93% Calm Calm -- 29.94 in1013.9 mb 0.01 in0.3 mm 0.00 in0.0 mm 0.07 in1.8 mm
04:10 AM 46.1°F7.8°C 44.2°F6.8°C 93% Calm Calm -- 29.93 in1013.5 mb 0.00 in0.0 mm 0.00 in0.0 mm 0.07 in1.8 mm
04:15 AM 46.1°F7.8°C 44.2°F6.8°C 93% Calm Calm -- 29.93 in1013.5 mb 0.00 in0.0 mm 0.00 in0.0 mm 0.07 in1.8 mm
04:19 AM 46.1°F7.8°C 44.2°F6.8°C 93% Calm Calm -- 29.93 in1013.5 mb 0.00 in0.0 mm 0.00 in0.0 mm 0.07 in1.8 mm
04:25 AM 46.0°F7.8°C 44.1°F6.7°C 93% Calm Calm -- 29.93 in1013.5 mb 0.00 in0.0 mm 0.00 in0.0 mm 0.07 in1.8 mm
04:30 AM 46.0°F7.8°C 44.1°F6.7°C 93% Calm Calm -- 29.93 in1013.5 mb 0.00 in0.0 mm 0.00 in0.0 mm 0.07 in1.8 mm
04:35 AM 46.0°F7.8°C 44.1°F6.7°C 93% Calm Calm -- 29.93 in1013.5 mb 0.00 in0.0 mm 0.00 in0.0 mm 0.07 in1.8 mm
04:40 AM 46.0°F7.8°C 44.1°F6.7°C 93% Calm Calm -- 29.92 in1013.2 mb 0.00 in0.0 mm 0.00 in0.0 mm 0.07 in1.8 mm
04:45 AM 46.0°F7.8°C 44.1°F6.7°C 93% Calm Calm -- 29.92 in1013.2 mb 0.00 in0.0 mm 0.00 in0.0 mm 0.07 in1.8 mm
04:49 AM 46.1°F7.8°C 44.2°F6.8°C 93% Calm Calm -- 29.93 in1013.5 mb 0.00 in0.0 mm 0.00 in0.0 mm 0.07 in1.8 mm
04:55 AM 46.1°F7.8°C 44.2°F6.8°C 93% Calm Calm -- 29.92 in1013.2 mb 0.00 in0.0 mm 0.00 in0.0 mm 0.07 in1.8 mm
04:59 AM 46.1°F7.8°C 44.2°F6.8°C 93% Calm Calm -- 29.91 in1012.9 mb 0.00 in0.0 mm 0.00 in0.0 mm 0.07 in1.8 mm
05:05 AM 46.0°F7.8°C 44.1°F6.7°C 93% Calm Calm -- 29.92 in1013.2 mb 0.00 in0.0 mm 0.00 in0.0 mm 0.07 in1.8 mm
05:10 AM 46.1°F7.8°C 44.2°F6.8°C 93% Calm Calm -- 29.92 in1013.2 mb 0.00 in0.0 mm 0.00 in0.0 mm 0.07 in1.8 mm
05:15 AM 46.1°F7.8°C 44.2°F6.8°C 93% Calm Calm -- 29.91 in1012.9 mb 0.00 in0.0 mm 0.00 in0.0 mm 0.07 in1.8 mm
05:19 AM 46.2°F7.9°C 44.3°F6.8°C 93% Calm Calm -- 29.91 in1012.9 mb 0.00 in0.0 mm 0.00 in0.0 mm 0.07 in1.8 mm
05:25 AM 46.3°F7.9°C 44.4°F6.9°C 93% Calm Calm -- 29.91 in1012.9 mb 0.00 in0.0 mm 0.00 in0.0 mm 0.07 in1.8 mm
05:30 AM 46.5°F8.1°C 44.6°F7.0°C 93% Calm Calm -- 29.91 in1012.9 mb 0.00 in0.0 mm 0.00 in0.0 mm 0.07 in1.8 mm
05:35 AM 46.7°F8.2°C 44.8°F7.1°C 93% Calm Calm 1.0 mph1.6 kmh 29.91 in1012.9 mb 0.00 in0.0 mm 0.00 in0.0 mm 0.07 in1.8 mm
05:40 AM 46.8°F8.2°C 44.9°F7.2°C 93% Calm Calm -- 29.91 in1012.9 mb 0.00 in0.0 mm 0.00 in0.0 mm 0.07 in1.8 mm
05:45 AM 46.9°F8.3°C 45.0°F7.2°C 93% Calm Calm -- 29.91 in1012.9 mb 0.00 in0.0 mm 0.00 in0.0 mm 0.07 in1.8 mm
05:50 AM 47.0°F8.3°C 45.1°F7.3°C 93% Calm Calm -- 29.91 in1012.9 mb 0.00 in0.0 mm 0.00 in0.0 mm 0.07 in1.8 mm
05:55 AM 47.0°F8.3°C 45.1°F7.3°C 93% Calm Calm -- 29.91 in1012.9 mb 0.00 in0.0 mm 0.00 in0.0 mm 0.07 in1.8 mm
05:59 AM 47.1°F8.4°C 45.2°F7.3°C 93% Calm Calm 1.0 mph1.6 kmh 29.91 in1012.9 mb 0.00 in0.0 mm 0.00 in0.0 mm 0.07 in1.8 mm
06:04 AM 47.3°F8.5°C 45.4°F7.4°C 93% Calm Calm 2.0 mph3.2 kmh 29.92 in1013.2 mb 0.00 in0.0 mm 0.00 in0.0 mm 0.07 in1.8 mm
06:09 AM 47.4°F8.6°C 45.5°F7.5°C 93% Calm Calm -- 29.91 in1012.9 mb 0.00 in0.0 mm 0.00 in0.0 mm 0.07 in1.8 mm
06:15 AM 47.4°F8.6°C 45.5°F7.5°C 93% Calm Calm -- 29.91 in1012.9 mb 0.00 in0.0 mm 0.00 in0.0 mm 0.07 in1.8 mm
06:20 AM 47.5°F8.6°C 45.6°F7.6°C 93% Calm Calm -- 29.89 in1012.2 mb 0.00 in0.0 mm 0.00 in0.0 mm 0.07 in1.8 mm
06:25 AM 47.5°F8.6°C 45.6°F7.6°C 93% Calm Calm -- 29.89 in1012.2 mb 0.00 in0.0 mm 0.00 in0.0 mm 0.07 in1.8 mm
06:30 AM 47.6°F8.7°C 45.7°F7.6°C 93% Calm Calm -- 29.89 in1012.2 mb 0.00 in0.0 mm 0.00 in0.0 mm 0.07 in1.8 mm
06:35 AM 47.6°F8.7°C 45.7°F7.6°C 93% Calm Calm 1.0 mph1.6 kmh 29.88 in1011.9 mb 0.00 in0.0 mm 0.00 in0.0 mm 0.07 in1.8 mm
06:39 AM 47.8°F8.8°C 45.9°F7.7°C 93% Calm Calm 1.0 mph1.6 kmh 29.88 in1011.9 mb 0.00 in0.0 mm 0.00 in0.0 mm 0.07 in1.8 mm
06:45 AM 47.9°F8.8°C 46.0°F7.8°C 93% Calm Calm 2.0 mph3.2 kmh 29.86 in1011.2 mb 0.00 in0.0 mm 0.00 in0.0 mm 0.07 in1.8 mm
06:50 AM 48.3°F9.1°C 46.4°F8.0°C 93% Calm Calm 2.0 mph3.2 kmh 29.86 in1011.2 mb 0.00 in0.0 mm 0.00 in0.0 mm 0.07 in1.8 mm
06:55 AM 48.6°F9.2°C 46.7°F8.2°C 93% 1.0 mph E1.6 kmh E 2.0 mph3.2 kmh 29.85 in1010.8 mb 0.00 in0.0 mm 0.00 in0.0 mm 0.07 in1.8 mm
07:00 AM 48.8°F9.3°C 46.9°F8.3°C 93% Calm Calm 3.0 mph4.8 kmh 29.83 in1010.2 mb 0.00 in0.0 mm 0.00 in0.0 mm 0.07 in1.8 mm
07:04 AM 48.8°F9.3°C 46.9°F8.3°C 93% Calm Calm 4.0 mph6.4 kmh 29.83 in1010.2 mb 0.00 in0.0 mm 0.00 in0.0 mm 0.07 in1.8 mm
07:10 AM 49.0°F9.4°C 47.1°F8.4°C 93% Calm Calm 1.0 mph1.6 kmh 29.84 in1010.5 mb 0.00 in0.0 mm 0.00 in0.0 mm 0.07 in1.8 mm
07:15 AM 49.1°F9.5°C 47.2°F8.4°C 93% Calm Calm 1.0 mph1.6 kmh 29.84 in1010.5 mb 0.00 in0.0 mm 0.00 in0.0 mm 0.07 in1.8 mm
07:20 AM 49.4°F9.7°C 47.5°F8.6°C 93% Calm Calm 2.0 mph3.2 kmh 29.84 in1010.5 mb 0.00 in0.0 mm 0.00 in0.0 mm 0.07 in1.8 mm
07:25 AM 49.5°F9.7°C 47.6°F8.7°C 93% Calm Calm 1.0 mph1.6 kmh 29.85 in1010.8 mb 0.00 in0.0 mm 0.00 in0.0 mm 0.07 in1.8 mm
07:30 AM 49.6°F9.8°C 47.7°F8.7°C 93% Calm Calm -- 29.86 in1011.2 mb 0.00 in0.0 mm 0.00 in0.0 mm 0.07 in1.8 mm
07:34 AM 50.0°F10.0°C 48.1°F8.9°C 93% 2.0 mph ESE3.2 kmh ESE 2.0 mph3.2 kmh 29.89 in1012.2 mb 0.00 in0.0 mm 0.00 in0.0 mm 0.07 in1.8 mm
07:40 AM 50.3°F10.2°C 48.4°F9.1°C 93% 2.0 mph SW3.2 kmh SW 4.0 mph6.4 kmh 29.91 in1012.9 mb 0.00 in0.0 mm 0.00 in0.0 mm 0.07 in1.8 mm
07:45 AM 50.4°F10.2°C 48.5°F9.2°C 93% Calm Calm 3.0 mph4.8 kmh 29.91 in1012.9 mb 0.00 in0.0 mm 0.00 in0.0 mm 0.07 in1.8 mm
07:50 AM 50.3°F10.2°C 48.4°F9.1°C 93% Calm Calm 3.0 mph4.8 kmh 29.90 in1012.5 mb 0.00 in0.0 mm 0.00 in0.0 mm 0.07 in1.8 mm
07:55 AM 50.1°F10.1°C 48.2°F9.0°C 93% Calm Calm -- 29.87 in1011.5 mb 0.00 in0.0 mm 0.00 in0.0 mm 0.07 in1.8 mm
08:00 AM 50.0°F10.0°C 48.1°F8.9°C 93% Calm Calm 2.0 mph3.2 kmh 29.85 in1010.8 mb 0.01 in0.3 mm 0.01 in0.3 mm 0.08 in2.0 mm
08:04 AM 49.8°F9.9°C 47.9°F8.8°C 93% Calm Calm -- 29.85 in1010.8 mb 0.01 in0.3 mm 0.00 in0.0 mm 0.08 in2.0 mm
08:09 AM 49.7°F9.8°C 47.8°F8.8°C 93% Calm Calm 1.0 mph1.6 kmh 29.86 in1011.2 mb 0.01 in0.3 mm 0.00 in0.0 mm 0.08 in2.0 mm
08:15 AM 49.7°F9.8°C 47.8°F8.8°C 93% Calm Calm -- 29.85 in1010.8 mb 0.01 in0.3 mm 0.00 in0.0 mm 0.08 in2.0 mm
08:19 AM 49.7°F9.8°C 47.8°F8.8°C 93% Calm Calm -- 29.85 in1010.8 mb 0.02 in0.5 mm 0.15 in3.8 mm 0.09 in2.3 mm
08:25 AM 49.8°F9.9°C 47.9°F8.8°C 93% 1.0 mph E1.6 kmh E 2.0 mph3.2 kmh 29.86 in1011.2 mb 0.02 in0.5 mm 0.00 in0.0 mm 0.09 in2.3 mm
08:30 AM 49.8°F9.9°C 47.9°F8.8°C 93% Calm Calm -- 29.86 in1011.2 mb 0.02 in0.5 mm 0.00 in0.0 mm 0.09 in2.3 mm
08:35 AM 49.6°F9.8°C 47.7°F8.7°C 93% Calm Calm 1.0 mph1.6 kmh 29.86 in1011.2 mb 0.02 in0.5 mm 0.00 in0.0 mm 0.09 in2.3 mm
08:40 AM 49.6°F9.8°C 47.7°F8.7°C 93% Calm Calm -- 29.87 in1011.5 mb 0.03 in0.8 mm 0.12 in3.0 mm 0.10 in2.5 mm
08:45 AM 49.7°F9.8°C 47.8°F8.8°C 93% 1.0 mph E1.6 kmh E 1.0 mph1.6 kmh 29.88 in1011.9 mb 0.03 in0.8 mm 0.00 in0.0 mm 0.10 in2.5 mm
08:50 AM 49.6°F9.8°C 47.7°F8.7°C 93% 3.0 mph SE4.8 kmh SE 3.0 mph4.8 kmh 29.88 in1011.9 mb 0.03 in0.8 mm 0.00 in0.0 mm 0.10 in2.5 mm
08:55 AM 49.6°F9.8°C 47.7°F8.7°C 93% 1.0 mph SSW1.6 kmh SSW 3.0 mph4.8 kmh 29.88 in1011.9 mb 0.03 in0.8 mm 0.00 in0.0 mm 0.10 in2.5 mm
09:00 AM 49.7°F9.8°C 47.8°F8.8°C 93% 1.0 mph S1.6 kmh S 3.0 mph4.8 kmh 29.87 in1011.5 mb 0.04 in1.0 mm 0.01 in0.3 mm 0.11 in2.8 mm
09:05 AM 49.9°F9.9°C 48.0°F8.9°C 93% Calm Calm 2.0 mph3.2 kmh 29.87 in1011.5 mb 0.03 in0.8 mm 0.00 in0.0 mm 0.11 in2.8 mm
09:10 AM 49.8°F9.9°C 47.9°F8.8°C 93% Calm Calm 1.0 mph1.6 kmh 29.86 in1011.2 mb 0.04 in1.0 mm 0.12 in3.0 mm 0.12 in3.0 mm
09:15 AM 49.8°F9.9°C 47.9°F8.8°C 93% Calm Calm 1.0 mph1.6 kmh 29.86 in1011.2 mb 0.04 in1.0 mm 0.00 in0.0 mm 0.12 in3.0 mm
09:20 AM 49.9°F9.9°C 48.0°F8.9°C 93% Calm Calm -- 29.87 in1011.5 mb 0.04 in1.0 mm 0.00 in0.0 mm 0.12 in3.0 mm
09:25 AM 50.0°F10.0°C 48.1°F8.9°C 93% Calm Calm -- 29.87 in1011.5 mb 0.04 in1.0 mm 0.00 in0.0 mm 0.12 in3.0 mm
09:30 AM 50.1°F10.1°C 48.2°F9.0°C 93% Calm Calm -- 29.87 in1011.5 mb 0.04 in1.0 mm 0.00 in0.0 mm 0.12 in3.0 mm
09:35 AM 50.1°F10.1°C 48.2°F9.0°C 93% Calm Calm -- 29.86 in1011.2 mb 0.05 in1.3 mm 0.12 in3.0 mm 0.13 in3.3 mm
09:40 AM 50.1°F10.1°C 48.2°F9.0°C 93% Calm Calm -- 29.87 in1011.5 mb 0.05 in1.3 mm 0.00 in0.0 mm 0.13 in3.3 mm
09:45 AM 50.2°F10.1°C 48.3°F9.1°C 93% Calm Calm -- 29.87 in1011.5 mb 0.05 in1.3 mm 0.00 in0.0 mm 0.13 in3.3 mm
09:50 AM 50.2°F10.1°C 48.3°F9.1°C 93% Calm Calm -- 29.86 in1011.2 mb 0.05 in1.3 mm 0.00 in0.0 mm 0.13 in3.3 mm
09:55 AM 50.1°F10.1°C 48.2°F9.0°C 93% Calm Calm 1.0 mph1.6 kmh 29.85 in1010.8 mb 0.06 in1.5 mm 0.12 in3.0 mm 0.14 in3.6 mm
10:00 AM 50.2°F10.1°C 48.3°F9.1°C 93% Calm Calm 3.0 mph4.8 kmh 29.84 in1010.5 mb 0.06 in1.5 mm 0.00 in0.0 mm 0.14 in3.6 mm
10:04 AM 50.4°F10.2°C 48.5°F9.2°C 93% Calm Calm 2.0 mph3.2 kmh 29.83 in1010.2 mb 0.06 in1.5 mm 0.00 in0.0 mm 0.14 in3.6 mm
10:09 AM 50.5°F10.3°C 48.6°F9.2°C 93% Calm Calm 2.0 mph3.2 kmh 29.83 in1010.2 mb 0.07 in1.8 mm 0.12 in3.0 mm 0.15 in3.8 mm
10:15 AM 50.6°F10.3°C 48.7°F9.3°C 93% 1.0 mph SE1.6 kmh SE 3.0 mph4.8 kmh 29.83 in1010.2 mb 0.06 in1.5 mm 0.00 in0.0 mm 0.15 in3.8 mm
10:20 AM 50.8°F10.4°C 48.9°F9.4°C 93% 3.0 mph SE4.8 kmh SE 4.0 mph6.4 kmh 29.84 in1010.5 mb 0.07 in1.8 mm 0.12 in3.0 mm 0.16 in4.1 mm
10:25 AM 51.1°F10.6°C 49.2°F9.6°C 93% Calm Calm 1.0 mph1.6 kmh 29.83 in1010.2 mb 0.06 in1.5 mm 0.00 in0.0 mm 0.16 in4.1 mm
10:30 AM 51.3°F10.7°C 49.4°F9.7°C 93% 1.0 mph SE1.6 kmh SE 4.0 mph6.4 kmh 29.83 in1010.2 mb 0.07 in1.8 mm 0.12 in3.0 mm 0.17 in4.3 mm
10:35 AM 51.4°F10.8°C 49.5°F9.7°C 93% Calm Calm 3.0 mph4.8 kmh 29.81 in1009.5 mb 0.06 in1.5 mm 0.00 in0.0 mm 0.17 in4.3 mm
10:40 AM 51.4°F10.8°C 49.5°F9.7°C 93% 3.0 mph SE4.8 kmh SE 3.0 mph4.8 kmh 29.80 in1009.1 mb 0.07 in1.8 mm 0.12 in3.0 mm 0.18 in4.6 mm
10:45 AM 51.5°F10.8°C 49.6°F9.8°C 93% 1.0 mph SE1.6 kmh SE 5.0 mph8.0 kmh 29.79 in1008.8 mb 0.06 in1.5 mm 0.00 in0.0 mm 0.18 in4.6 mm
10:50 AM 51.8°F11.0°C 49.8°F9.9°C 93% Calm Calm 6.0 mph9.7 kmh 29.78 in1008.5 mb 0.07 in1.8 mm 0.12 in3.0 mm 0.19 in4.8 mm
10:55 AM 52.0°F11.1°C 50.0°F10.0°C 93% 4.0 mph ESE6.4 kmh ESE 7.0 mph11.3 kmh 29.77 in1008.1 mb 0.07 in1.8 mm 0.00 in0.0 mm 0.19 in4.8 mm
11:00 AM 52.3°F11.3°C 50.3°F10.2°C 93% 3.0 mph ESE4.8 kmh ESE 6.0 mph9.7 kmh 29.76 in1007.8 mb 0.07 in1.8 mm 0.00 in0.0 mm 0.19 in4.8 mm
11:05 AM 52.4°F11.3°C 50.4°F10.2°C 93% 5.0 mph SSE8.0 kmh SSE 7.0 mph11.3 kmh 29.75 in1007.5 mb 0.06 in1.5 mm 0.00 in0.0 mm 0.19 in4.8 mm
11:10 AM 52.7°F11.5°C 51.0°F10.6°C 94% 5.0 mph SE8.0 kmh SE 10.0 mph16.1 kmh 29.75 in1007.5 mb 0.07 in1.8 mm 0.12 in3.0 mm 0.20 in5.1 mm
11:15 AM 53.0°F11.7°C 51.0°F10.6°C 93% 3.0 mph SE4.8 kmh SE 8.0 mph12.9 kmh 29.75 in1007.5 mb 0.07 in1.8 mm 0.00 in0.0 mm 0.20 in5.1 mm
11:20 AM 53.1°F11.7°C 51.1°F10.6°C 93% 3.0 mph S4.8 kmh S 7.0 mph11.3 kmh 29.76 in1007.8 mb 0.07 in1.8 mm 0.00 in0.0 mm 0.20 in5.1 mm
11:25 AM 53.5°F11.9°C 51.5°F10.8°C 93% 4.0 mph SE6.4 kmh SE 7.0 mph11.3 kmh 29.78 in1008.5 mb 0.06 in1.5 mm 0.00 in0.0 mm 0.20 in5.1 mm
11:30 AM 53.7°F12.1°C 51.7°F10.9°C 93% 6.0 mph SSE9.7 kmh SSE 7.0 mph11.3 kmh 29.79 in1008.8 mb 0.07 in1.8 mm 0.12 in3.0 mm 0.21 in5.3 mm
11:35 AM 53.8°F12.1°C 51.8°F11.0°C 93% 4.0 mph S6.4 kmh S 6.0 mph9.7 kmh 29.79 in1008.8 mb 0.07 in1.8 mm 0.00 in0.0 mm 0.21 in5.3 mm
11:40 AM 53.8°F12.1°C 51.8°F11.0°C 93% 1.0 mph SSE1.6 kmh SSE 3.0 mph4.8 kmh 29.80 in1009.1 mb 0.06 in1.5 mm 0.00 in0.0 mm 0.21 in5.3 mm
11:45 AM 53.8°F12.1°C 51.8°F11.0°C 93% 2.0 mph SSE3.2 kmh SSE 5.0 mph8.0 kmh 29.81 in1009.5 mb 0.07 in1.8 mm 0.12 in3.0 mm 0.22 in5.6 mm
11:49 AM 53.8°F12.1°C 51.8°F11.0°C 93% 2.0 mph S3.2 kmh S 4.0 mph6.4 kmh 29.79 in1008.8 mb 0.08 in2.0 mm 0.15 in3.8 mm 0.23 in5.8 mm
11:55 AM 53.8°F12.1°C 51.8°F11.0°C 93% 1.0 mph SSE1.6 kmh SSE 5.0 mph8.0 kmh 29.81 in1009.5 mb 0.07 in1.8 mm 0.00 in0.0 mm 0.23 in5.8 mm
11:59 AM 53.9°F12.2°C 51.9°F11.1°C 93% Calm Calm 2.0 mph3.2 kmh 29.81 in1009.5 mb 0.07 in1.8 mm 0.00 in0.0 mm 0.23 in5.8 mm
12:05 PM 53.9°F12.2°C 51.9°F11.1°C 93% Calm Calm 1.0 mph1.6 kmh 29.81 in1009.5 mb 0.08 in2.0 mm 0.01 in0.3 mm 0.24 in6.1 mm
12:10 PM 53.8°F12.1°C 51.8°F11.0°C 93% Calm Calm 1.0 mph1.6 kmh 29.81 in1009.5 mb 0.07 in1.8 mm 0.00 in0.0 mm 0.24 in6.1 mm
12:15 PM 53.8°F12.1°C 51.8°F11.0°C 93% Calm Calm 5.0 mph8.0 kmh 29.80 in1009.1 mb 0.08 in2.0 mm 0.12 in3.0 mm 0.25 in6.4 mm
12:20 PM 53.8°F12.1°C 51.8°F11.0°C 93% Calm Calm -- 29.80 in1009.1 mb 0.08 in2.0 mm 0.00 in0.0 mm 0.25 in6.4 mm
12:25 PM 53.9°F12.2°C 51.9°F11.1°C 93% Calm Calm 1.0 mph1.6 kmh 29.81 in1009.5 mb 0.08 in2.0 mm 0.00 in0.0 mm 0.25 in6.4 mm
12:30 PM 53.8°F12.1°C 51.8°F11.0°C 93% 3.0 mph SW4.8 kmh SW 3.0 mph4.8 kmh 29.82 in1009.8 mb 0.08 in2.0 mm 0.00 in0.0 mm 0.25 in6.4 mm
12:35 PM 53.8°F12.1°C 51.8°F11.0°C 93% Calm Calm 2.0 mph3.2 kmh 29.82 in1009.8 mb 0.09 in2.3 mm 0.12 in3.0 mm 0.26 in6.6 mm
12:40 PM 53.8°F12.1°C 51.8°F11.0°C 93% Calm Calm 1.0 mph1.6 kmh 29.80 in1009.1 mb 0.09 in2.3 mm 0.00 in0.0 mm 0.26 in6.6 mm
12:45 PM 53.7°F12.1°C 51.7°F10.9°C 93% Calm Calm 2.0 mph3.2 kmh 29.76 in1007.8 mb 0.09 in2.3 mm 0.00 in0.0 mm 0.26 in6.6 mm
12:50 PM 53.7°F12.1°C 51.7°F10.9°C 93% 1.0 mph SE1.6 kmh SE 4.0 mph6.4 kmh 29.76 in1007.8 mb 0.09 in2.3 mm 0.00 in0.0 mm 0.26 in6.6 mm
12:55 PM 54.1°F12.3°C 52.1°F11.2°C 93% Calm Calm 3.0 mph4.8 kmh 29.75 in1007.5 mb 0.09 in2.3 mm 0.00 in0.0 mm 0.26 in6.6 mm
01:00 PM 54.4°F12.4°C 52.4°F11.3°C 93% 3.0 mph ESE4.8 kmh ESE 3.0 mph4.8 kmh 29.75 in1007.5 mb 0.10 in2.5 mm 0.01 in0.3 mm 0.27 in6.9 mm
01:04 PM 54.5°F12.5°C 52.5°F11.4°C 93% Calm Calm 3.0 mph4.8 kmh 29.75 in1007.5 mb 0.09 in2.3 mm 0.00 in0.0 mm 0.27 in6.9 mm
01:10 PM 54.7°F12.6°C 52.7°F11.5°C 93% Calm Calm 2.0 mph3.2 kmh 29.74 in1007.1 mb 0.09 in2.3 mm 0.00 in0.0 mm 0.27 in6.9 mm
01:14 PM 54.8°F12.7°C 52.8°F11.6°C 93% Calm Calm 3.0 mph4.8 kmh 29.74 in1007.1 mb 0.10 in2.5 mm 0.15 in3.8 mm 0.28 in7.1 mm
01:20 PM 54.8°F12.7°C 52.8°F11.6°C 93% 1.0 mph SE1.6 kmh SE 3.0 mph4.8 kmh 29.74 in1007.1 mb 0.10 in2.5 mm 0.00 in0.0 mm 0.28 in7.1 mm
01:25 PM 54.9°F12.7°C 52.9°F11.6°C 93% Calm Calm 2.0 mph3.2 kmh 29.74 in1007.1 mb 0.10 in2.5 mm 0.00 in0.0 mm 0.28 in7.1 mm
01:30 PM 55.0°F12.8°C 53.0°F11.7°C 93% Calm Calm 4.0 mph6.4 kmh 29.72 in1006.4 mb 0.10 in2.5 mm 0.00 in0.0 mm 0.28 in7.1 mm
01:35 PM 55.0°F12.8°C 53.0°F11.7°C 93% 1.0 mph ESE1.6 kmh ESE 2.0 mph3.2 kmh 29.73 in1006.8 mb 0.10 in2.5 mm 0.00 in0.0 mm 0.28 in7.1 mm
01:40 PM 55.0°F12.8°C 53.0°F11.7°C 93% 1.0 mph SE1.6 kmh SE 3.0 mph4.8 kmh 29.74 in1007.1 mb 0.10 in2.5 mm 0.00 in0.0 mm 0.28 in7.1 mm
01:44 PM 55.0°F12.8°C 53.0°F11.7°C 93% 1.0 mph SE1.6 kmh SE 2.0 mph3.2 kmh 29.73 in1006.8 mb 0.10 in2.5 mm 0.00 in0.0 mm 0.28 in7.1 mm
01:50 PM 55.0°F12.8°C 53.0°F11.7°C 93% 1.0 mph E1.6 kmh E 4.0 mph6.4 kmh 29.72 in1006.4 mb 0.10 in2.5 mm 0.00 in0.0 mm 0.28 in7.1 mm
01:55 PM 55.2°F12.9°C 53.2°F11.8°C 93% Calm Calm 2.0 mph3.2 kmh 29.73 in1006.8 mb 0.11 in2.8 mm 0.12 in3.0 mm 0.29 in7.4 mm
02:00 PM 55.3°F12.9°C 53.3°F11.8°C 93% Calm Calm 2.0 mph3.2 kmh 29.73 in1006.8 mb 0.11 in2.8 mm 0.00 in0.0 mm 0.29 in7.4 mm
02:05 PM 55.3°F12.9°C 53.3°F11.8°C 93% 2.0 mph ESE3.2 kmh ESE 3.0 mph4.8 kmh 29.73 in1006.8 mb 0.10 in2.5 mm 0.00 in0.0 mm 0.29 in7.4 mm
02:10 PM 55.4°F13.0°C 53.4°F11.9°C 93% 1.0 mph SE1.6 kmh SE 2.0 mph3.2 kmh 29.73 in1006.8 mb 0.10 in2.5 mm 0.00 in0.0 mm 0.29 in7.4 mm
02:15 PM 55.6°F13.1°C 53.6°F12.0°C 93% 1.0 mph SE1.6 kmh SE 2.0 mph3.2 kmh 29.72 in1006.4 mb 0.10 in2.5 mm 0.00 in0.0 mm 0.29 in7.4 mm
02:20 PM 55.6°F13.1°C 53.6°F12.0°C 93% Calm Calm 4.0 mph6.4 kmh 29.72 in1006.4 mb 0.11 in2.8 mm 0.12 in3.0 mm 0.30 in7.6 mm
02:25 PM 55.6°F13.1°C 53.6°F12.0°C 93% 3.0 mph S4.8 kmh S 3.0 mph4.8 kmh 29.72 in1006.4 mb 0.11 in2.8 mm 0.00 in0.0 mm 0.30 in7.6 mm
02:30 PM 55.6°F13.1°C 53.6°F12.0°C 93% 3.0 mph S4.8 kmh S 5.0 mph8.0 kmh 29.73 in1006.8 mb 0.11 in2.8 mm 0.00 in0.0 mm 0.30 in7.6 mm
02:35 PM 55.8°F13.2°C 53.8°F12.1°C 93% Calm Calm 3.0 mph4.8 kmh 29.73 in1006.8 mb 0.11 in2.8 mm 0.00 in0.0 mm 0.30 in7.6 mm
02:39 PM 55.9°F13.3°C 53.9°F12.2°C 93% 5.0 mph S8.0 kmh S 7.0 mph11.3 kmh 29.73 in1006.8 mb 0.10 in2.5 mm 0.00 in0.0 mm 0.30 in7.6 mm
02:45 PM 55.9°F13.3°C 53.9°F12.2°C 93% 1.0 mph SE1.6 kmh SE 6.0 mph9.7 kmh 29.73 in1006.8 mb 0.10 in2.5 mm 0.00 in0.0 mm 0.30 in7.6 mm
02:50 PM 56.0°F13.3°C 54.0°F12.2°C 93% 1.0 mph SE1.6 kmh SE 4.0 mph6.4 kmh 29.72 in1006.4 mb 0.11 in2.8 mm 0.12 in3.0 mm 0.31 in7.9 mm
02:55 PM 56.0°F13.3°C 54.0°F12.2°C 93% Calm Calm 3.0 mph4.8 kmh 29.71 in1006.1 mb 0.11 in2.8 mm 0.00 in0.0 mm 0.31 in7.9 mm
03:00 PM 56.2°F13.4°C 54.2°F12.3°C 93% 5.0 mph SE8.0 kmh SE 7.0 mph11.3 kmh 29.69 in1005.4 mb 0.11 in2.8 mm 0.00 in0.0 mm 0.31 in7.9 mm
03:04 PM 56.4°F13.6°C 54.4°F12.4°C 93% 1.0 mph SE1.6 kmh SE 7.0 mph11.3 kmh 29.66 in1004.4 mb 0.11 in2.8 mm 0.00 in0.0 mm 0.31 in7.9 mm
03:10 PM 56.8°F13.8°C 54.8°F12.7°C 93% 11.0 mph S17.7 kmh S 12.0 mph19.3 kmh 29.66 in1004.4 mb 0.11 in2.8 mm 0.00 in0.0 mm 0.31 in7.9 mm
03:15 PM 57.1°F13.9°C 55.1°F12.8°C 93% 5.0 mph S8.0 kmh S 9.0 mph14.5 kmh 29.65 in1004.1 mb 0.10 in2.5 mm 0.00 in0.0 mm 0.31 in7.9 mm
03:20 PM 57.3°F14.1°C 55.3°F12.9°C 93% 8.0 mph SSE12.9 kmh SSE 10.0 mph16.1 kmh 29.64 in1003.7 mb 0.11 in2.8 mm 0.12 in3.0 mm 0.32 in8.1 mm
03:25 PM 57.5°F14.2°C 55.5°F13.1°C 93% 4.0 mph SSW6.4 kmh SSW 12.0 mph19.3 kmh 29.65 in1004.1 mb 0.11 in2.8 mm 0.00 in0.0 mm 0.32 in8.1 mm
03:29 PM 57.5°F14.2°C 55.5°F13.1°C 93% 4.0 mph SE6.4 kmh SE 11.0 mph17.7 kmh 29.65 in1004.1 mb 0.11 in2.8 mm 0.00 in0.0 mm 0.32 in8.1 mm
03:35 PM 57.6°F14.2°C 55.6°F13.1°C 93% 3.0 mph SW4.8 kmh SW 11.0 mph17.7 kmh 29.67 in1004.7 mb 0.11 in2.8 mm 0.00 in0.0 mm 0.32 in8.1 mm
03:39 PM 57.7°F14.3°C 55.7°F13.2°C 93% 2.0 mph S3.2 kmh S 6.0 mph9.7 kmh 29.67 in1004.7 mb 0.11 in2.8 mm 0.00 in0.0 mm 0.32 in8.1 mm
03:45 PM 57.8°F14.3°C 55.8°F13.2°C 93% 7.0 mph S11.3 kmh S 9.0 mph14.5 kmh 29.65 in1004.1 mb 0.11 in2.8 mm 0.00 in0.0 mm 0.32 in8.1 mm
03:50 PM 58.0°F14.4°C 56.0°F13.3°C 93% 2.0 mph S3.2 kmh S 6.0 mph9.7 kmh 29.67 in1004.7 mb 0.10 in2.5 mm 0.00 in0.0 mm 0.32 in8.1 mm
03:55 PM 58.0°F14.4°C 56.0°F13.3°C 93% 1.0 mph S1.6 kmh S 5.0 mph8.0 kmh 29.67 in1004.7 mb 0.10 in2.5 mm 0.00 in0.0 mm 0.32 in8.1 mm
04:00 PM 58.1°F14.5°C 56.1°F13.4°C 93% 3.0 mph SW4.8 kmh SW 7.0 mph11.3 kmh 29.67 in1004.7 mb 0.10 in2.5 mm 0.00 in0.0 mm 0.32 in8.1 mm
04:05 PM 58.4°F14.7°C 56.4°F13.6°C 93% 3.0 mph SW4.8 kmh SW 6.0 mph9.7 kmh 29.67 in1004.7 mb 0.11 in2.8 mm 0.12 in3.0 mm 0.33 in8.4 mm
04:10 PM 58.6°F14.8°C 56.6°F13.7°C 93% 4.0 mph SW6.4 kmh SW 8.0 mph12.9 kmh 29.68 in1005.1 mb 0.11 in2.8 mm 0.00 in0.0 mm 0.33 in8.4 mm
04:15 PM 58.6°F14.8°C 56.6°F13.7°C 93% 5.0 mph SSE8.0 kmh SSE 6.0 mph9.7 kmh 29.67 in1004.7 mb 0.10 in2.5 mm 0.00 in0.0 mm 0.33 in8.4 mm
04:20 PM 58.9°F14.9°C 56.9°F13.8°C 93% 9.0 mph S14.5 kmh S 16.0 mph25.7 kmh 29.62 in1003.0 mb 0.10 in2.5 mm 0.00 in0.0 mm 0.33 in8.4 mm
04:25 PM 59.1°F15.1°C 57.1°F13.9°C 93% 8.0 mph S12.9 kmh S 14.0 mph22.5 kmh 29.61 in1002.7 mb 0.10 in2.5 mm 0.00 in0.0 mm 0.33 in8.4 mm
04:30 PM 59.2°F15.1°C 57.2°F14.0°C 93% 7.0 mph S11.3 kmh S 10.0 mph16.1 kmh 29.64 in1003.7 mb 0.10 in2.5 mm 0.00 in0.0 mm 0.33 in8.4 mm
04:34 PM 59.3°F15.2°C 57.3°F14.1°C 93% 8.0 mph SW12.9 kmh SW 11.0 mph17.7 kmh 29.65 in1004.1 mb 0.11 in2.8 mm 0.15 in3.8 mm 0.34 in8.6 mm
04:40 PM 59.4°F15.2°C 57.4°F14.1°C 93% 7.0 mph SW11.3 kmh SW 14.0 mph22.5 kmh 29.66 in1004.4 mb 0.10 in2.5 mm 0.00 in0.0 mm 0.34 in8.6 mm
04:44 PM 59.4°F15.2°C 57.4°F14.1°C 93% 3.0 mph S4.8 kmh S 7.0 mph11.3 kmh 29.67 in1004.7 mb 0.10 in2.5 mm 0.00 in0.0 mm 0.34 in8.6 mm
04:50 PM 59.4°F15.2°C 57.4°F14.1°C 93% 7.0 mph S11.3 kmh S 8.0 mph12.9 kmh 29.66 in1004.4 mb 0.10 in2.5 mm 0.00 in0.0 mm 0.34 in8.6 mm
04:55 PM 59.5°F15.3°C 57.5°F14.2°C 93% 13.0 mph SW20.9 kmh SW 13.0 mph20.9 kmh 29.66 in1004.4 mb 0.10 in2.5 mm 0.00 in0.0 mm 0.34 in8.6 mm
04:59 PM 59.5°F15.3°C 57.5°F14.2°C 93% 5.0 mph SSW8.0 kmh SSW 13.0 mph20.9 kmh 29.66 in1004.4 mb 0.11 in2.8 mm 0.15 in3.8 mm 0.35 in8.9 mm
05:05 PM 59.8°F15.4°C 57.8°F14.3°C 93% 2.0 mph SW3.2 kmh SW 16.0 mph25.7 kmh 29.67 in1004.7 mb 0.10 in2.5 mm 0.00 in0.0 mm 0.35 in8.9 mm
05:10 PM 59.9°F15.5°C 57.9°F14.4°C 93% 7.0 mph SW11.3 kmh SW 12.0 mph19.3 kmh 29.67 in1004.7 mb 0.10 in2.5 mm 0.00 in0.0 mm 0.35 in8.9 mm
05:14 PM 60.2°F15.7°C 58.2°F14.6°C 93% 8.0 mph SW12.9 kmh SW 16.0 mph25.7 kmh 29.67 in1004.7 mb 0.10 in2.5 mm 0.00 in0.0 mm 0.35 in8.9 mm
05:20 PM 60.3°F15.7°C 58.3°F14.6°C 93% 4.0 mph SW6.4 kmh SW 12.0 mph19.3 kmh 29.67 in1004.7 mb 0.10 in2.5 mm 0.00 in0.0 mm 0.35 in8.9 mm
05:25 PM 60.3°F15.7°C 58.3°F14.6°C 93% 7.0 mph SW11.3 kmh SW 16.0 mph25.7 kmh 29.67 in1004.7 mb 0.10 in2.5 mm 0.00 in0.0 mm 0.35 in8.9 mm
05:30 PM 60.4°F15.8°C 58.4°F14.7°C 93% 11.0 mph SSW17.7 kmh SSW 15.0 mph24.1 kmh 29.67 in1004.7 mb 0.10 in2.5 mm 0.00 in0.0 mm 0.35 in8.9 mm
05:35 PM 60.5°F15.8°C 58.5°F14.7°C 93% 7.0 mph SW11.3 kmh SW 10.0 mph16.1 kmh 29.67 in1004.7 mb 0.10 in2.5 mm 0.00 in0.0 mm 0.35 in8.9 mm
05:40 PM 60.4°F15.8°C 58.4°F14.7°C 93% 14.0 mph SW22.5 kmh SW 14.0 mph22.5 kmh 29.67 in1004.7 mb 0.10 in2.5 mm 0.00 in0.0 mm 0.35 in8.9 mm
05:45 PM 60.6°F15.9°C 58.6°F14.8°C 93% 6.0 mph SW9.7 kmh SW 14.0 mph22.5 kmh 29.66 in1004.4 mb 0.09 in2.3 mm 0.00 in0.0 mm 0.35 in8.9 mm
05:49 PM 60.6°F15.9°C 58.3°F14.6°C 92% 10.0 mph SW16.1 kmh SW 14.0 mph22.5 kmh 29.67 in1004.7 mb 0.09 in2.3 mm 0.00 in0.0 mm 0.35 in8.9 mm
05:55 PM 60.6°F15.9°C 58.3°F14.6°C 92% 7.0 mph SSW11.3 kmh SSW 12.0 mph19.3 kmh 29.67 in1004.7 mb 0.10 in2.5 mm 0.10 in2.5 mm 0.36 in9.1 mm
05:59 PM 60.5°F15.8°C 58.2°F14.6°C 92% 6.0 mph SW9.7 kmh SW 12.0 mph19.3 kmh 29.68 in1005.1 mb 0.10 in2.5 mm 0.00 in0.0 mm 0.36 in9.1 mm
06:04 PM 60.3°F15.7°C 58.0°F14.4°C 92% 6.0 mph SW9.7 kmh SW 20.0 mph32.2 kmh 29.68 in1005.1 mb 0.09 in2.3 mm 0.00 in0.0 mm 0.36 in9.1 mm
06:10 PM 60.1°F15.6°C 58.1°F14.5°C 93% 10.0 mph WSW16.1 kmh WSW 15.0 mph24.1 kmh 29.68 in1005.1 mb 0.09 in2.3 mm 0.00 in0.0 mm 0.36 in9.1 mm
06:15 PM 59.2°F15.1°C 56.9°F13.8°C 92% 7.0 mph WNW11.3 kmh WNW 19.0 mph30.6 kmh 29.72 in1006.4 mb 0.09 in2.3 mm 0.00 in0.0 mm 0.36 in9.1 mm
06:20 PM 54.6°F12.6°C 50.8°F10.4°C 87% 14.0 mph WSW22.5 kmh WSW 16.0 mph25.7 kmh 29.73 in1006.8 mb 0.10 in2.5 mm 0.12 in3.0 mm 0.37 in9.4 mm
06:25 PM 51.8°F11.0°C 48.7°F9.3°C 89% 9.0 mph WSW14.5 kmh WSW 16.0 mph25.7 kmh 29.73 in1006.8 mb 0.09 in2.3 mm 0.00 in0.0 mm 0.37 in9.4 mm
06:30 PM 49.5°F9.7°C 46.4°F8.0°C 89% 9.0 mph WNW14.5 kmh WNW 18.0 mph29.0 kmh 29.76 in1007.8 mb 0.09 in2.3 mm 0.00 in0.0 mm 0.37 in9.4 mm
06:35 PM 47.6°F8.7°C 44.5°F6.9°C 89% 8.0 mph SW12.9 kmh SW 20.0 mph32.2 kmh 29.77 in1008.1 mb 0.10 in2.5 mm 0.12 in3.0 mm 0.38 in9.7 mm
06:40 PM 46.5°F8.1°C 43.7°F6.5°C 90% 8.0 mph NW12.9 kmh NW 16.0 mph25.7 kmh 29.77 in1008.1 mb 0.09 in2.3 mm 0.00 in0.0 mm 0.38 in9.7 mm
06:45 PM 45.9°F7.7°C 43.4°F6.3°C 91% 9.0 mph W14.5 kmh W 16.0 mph25.7 kmh 29.78 in1008.5 mb 0.09 in2.3 mm 0.00 in0.0 mm 0.38 in9.7 mm
06:49 PM 45.2°F7.3°C 42.7°F5.9°C 91% 4.0 mph NW6.4 kmh NW 12.0 mph19.3 kmh 29.79 in1008.8 mb 0.08 in2.0 mm 0.00 in0.0 mm 0.38 in9.7 mm
06:55 PM 44.5°F6.9°C 42.0°F5.6°C 91% 9.0 mph NW14.5 kmh NW 14.0 mph22.5 kmh 29.80 in1009.1 mb 0.08 in2.0 mm 0.00 in0.0 mm 0.38 in9.7 mm
07:00 PM 43.8°F6.6°C 41.4°F5.2°C 91% 6.0 mph WSW9.7 kmh WSW 13.0 mph20.9 kmh 29.80 in1009.1 mb 0.08 in2.0 mm 0.00 in0.0 mm 0.38 in9.7 mm
07:05 PM 43.2°F6.2°C 40.8°F4.9°C 91% 11.0 mph NW17.7 kmh NW 15.0 mph24.1 kmh 29.80 in1009.1 mb 0.08 in2.0 mm 0.00 in0.0 mm 0.38 in9.7 mm
07:10 PM 42.6°F5.9°C 39.9°F4.4°C 90% 7.0 mph WNW11.3 kmh WNW 12.0 mph19.3 kmh 29.81 in1009.5 mb 0.07 in1.8 mm 0.00 in0.0 mm 0.38 in9.7 mm
07:15 PM 41.9°F5.5°C 39.2°F4.0°C 90% 10.0 mph NW16.1 kmh NW 13.0 mph20.9 kmh 29.81 in1009.5 mb 0.08 in2.0 mm 0.12 in3.0 mm 0.39 in9.9 mm
07:20 PM 41.0°F5.0°C 38.3°F3.5°C 90% 10.0 mph NW16.1 kmh NW 13.0 mph20.9 kmh 29.82 in1009.8 mb 0.07 in1.8 mm 0.00 in0.0 mm 0.39 in9.9 mm
07:24 PM 40.2°F4.6°C 37.2°F2.9°C 89% 10.0 mph WSW16.1 kmh WSW 17.0 mph27.4 kmh 29.83 in1010.2 mb 0.07 in1.8 mm 0.00 in0.0 mm 0.39 in9.9 mm
07:30 PM 39.7°F4.3°C 36.7°F2.6°C 89% 9.0 mph NW14.5 kmh NW 12.0 mph19.3 kmh 29.83 in1010.2 mb 0.07 in1.8 mm 0.00 in0.0 mm 0.39 in9.9 mm
07:35 PM 39.4°F4.1°C 36.4°F2.4°C 89% 8.0 mph NW12.9 kmh NW 12.0 mph19.3 kmh 29.83 in1010.2 mb 0.07 in1.8 mm 0.00 in0.0 mm 0.39 in9.9 mm
07:39 PM 39.2°F4.0°C 36.2°F2.3°C 89% 6.0 mph W9.7 kmh W 11.0 mph17.7 kmh 29.84 in1010.5 mb 0.06 in1.5 mm 0.00 in0.0 mm 0.39 in9.9 mm
07:45 PM 39.0°F3.9°C 36.0°F2.2°C 89% 10.0 mph NW16.1 kmh NW 15.0 mph24.1 kmh 29.84 in1010.5 mb 0.07 in1.8 mm 0.10 in2.5 mm 0.40 in10.2 mm
07:50 PM 38.8°F3.8°C 35.8°F2.1°C 89% 4.0 mph NW6.4 kmh NW 11.0 mph17.7 kmh 29.85 in1010.8 mb 0.06 in1.5 mm 0.00 in0.0 mm 0.40 in10.2 mm
07:54 PM 38.8°F3.8°C 35.8°F2.1°C 89% 7.0 mph NW11.3 kmh NW 9.0 mph14.5 kmh 29.84 in1010.5 mb 0.05 in1.3 mm 0.00 in0.0 mm 0.40 in10.2 mm
08:00 PM 38.5°F3.6°C 35.6°F2.0°C 89% 2.0 mph NW3.2 kmh NW 10.0 mph16.1 kmh 29.85 in1010.8 mb 0.06 in1.5 mm 0.01 in0.3 mm 0.41 in10.4 mm
08:05 PM 38.4°F3.6°C 35.7°F2.1°C 90% 7.0 mph W11.3 kmh W 8.0 mph12.9 kmh 29.87 in1011.5 mb 0.05 in1.3 mm 0.00 in0.0 mm 0.41 in10.4 mm
08:10 PM 38.2°F3.4°C 35.5°F1.9°C 90% 9.0 mph NW14.5 kmh NW 9.0 mph14.5 kmh 29.86 in1011.2 mb 0.06 in1.5 mm 0.12 in3.0 mm 0.42 in10.7 mm
08:15 PM 37.9°F3.3°C 35.2°F1.8°C 90% 3.0 mph W4.8 kmh W 7.0 mph11.3 kmh 29.87 in1011.5 mb 0.05 in1.3 mm 0.00 in0.0 mm 0.42 in10.7 mm
08:20 PM 37.8°F3.2°C 35.1°F1.7°C 90% 6.0 mph W9.7 kmh W 13.0 mph20.9 kmh 29.88 in1011.9 mb 0.05 in1.3 mm 0.00 in0.0 mm 0.42 in10.7 mm
08:25 PM 37.7°F3.2°C 35.0°F1.7°C 90% 3.0 mph NW4.8 kmh NW 8.0 mph12.9 kmh 29.88 in1011.9 mb 0.05 in1.3 mm 0.00 in0.0 mm 0.42 in10.7 mm
08:30 PM 37.7°F3.2°C 35.0°F1.7°C 90% 4.0 mph NW6.4 kmh NW 7.0 mph11.3 kmh 29.89 in1012.2 mb 0.05 in1.3 mm 0.00 in0.0 mm 0.42 in10.7 mm
08:35 PM 37.5°F3.1°C 34.8°F1.6°C 90% 11.0 mph WNW17.7 kmh WNW 11.0 mph17.7 kmh 29.89 in1012.2 mb 0.04 in1.0 mm 0.00 in0.0 mm 0.42 in10.7 mm
08:39 PM 37.0°F2.8°C 34.1°F1.2°C 89% 8.0 mph NW12.9 kmh NW 14.0 mph22.5 kmh 29.89 in1012.2 mb 0.05 in1.3 mm 0.15 in3.8 mm 0.43 in10.9 mm
08:45 PM 36.7°F2.6°C 33.5°F0.8°C 88% 7.0 mph WNW11.3 kmh WNW 11.0 mph17.7 kmh 29.90 in1012.5 mb 0.05 in1.3 mm 0.00 in0.0 mm 0.43 in10.9 mm
08:50 PM 36.6°F2.6°C 33.4°F0.8°C 88% 2.0 mph NW3.2 kmh NW 11.0 mph17.7 kmh 29.91 in1012.9 mb 0.05 in1.3 mm 0.00 in0.0 mm 0.43 in10.9 mm
08:55 PM 36.4°F2.4°C 33.2°F0.7°C 88% 3.0 mph NW4.8 kmh NW 13.0 mph20.9 kmh 29.91 in1012.9 mb 0.05 in1.3 mm 0.00 in0.0 mm 0.43 in10.9 mm
09:00 PM 36.3°F2.4°C 33.1°F0.6°C 88% 6.0 mph NNW9.7 kmh NNW 11.0 mph17.7 kmh 29.91 in1012.9 mb 0.04 in1.0 mm 0.00 in0.0 mm 0.43 in10.9 mm
09:05 PM 36.2°F2.3°C 33.3°F0.7°C 89% 3.0 mph WNW4.8 kmh WNW 8.0 mph12.9 kmh 29.92 in1013.2 mb 0.04 in1.0 mm 0.00 in0.0 mm 0.43 in10.9 mm
09:10 PM 36.1°F2.3°C 33.2°F0.7°C 89% 8.0 mph NW12.9 kmh NW 8.0 mph12.9 kmh 29.92 in1013.2 mb 0.05 in1.3 mm 0.12 in3.0 mm 0.44 in11.2 mm
09:14 PM 35.8°F2.1°C 32.9°F0.5°C 89% 9.0 mph SW14.5 kmh SW 17.0 mph27.4 kmh 29.93 in1013.5 mb 0.04 in1.0 mm 0.00 in0.0 mm 0.44 in11.2 mm
09:20 PM 35.3°F1.8°C 32.1°F0.1°C 88% 9.0 mph WNW14.5 kmh WNW 17.0 mph27.4 kmh 29.94 in1013.9 mb 0.05 in1.3 mm 0.10 in2.5 mm 0.45 in11.4 mm
09:25 PM 35.0°F1.7°C 31.5°F-0.3°C 87% 9.0 mph WNW14.5 kmh WNW 14.0 mph22.5 kmh 29.94 in1013.9 mb 0.04 in1.0 mm 0.00 in0.0 mm 0.45 in11.4 mm
09:30 PM 34.8°F1.6°C 31.3°F-0.4°C 87% 5.0 mph NW8.0 kmh NW 14.0 mph22.5 kmh 29.94 in1013.9 mb 0.04 in1.0 mm 0.00 in0.0 mm 0.45 in11.4 mm
09:35 PM 34.6°F1.4°C 31.1°F-0.5°C 87% 8.0 mph NW12.9 kmh NW 16.0 mph25.7 kmh 29.95 in1014.2 mb 0.04 in1.0 mm 0.00 in0.0 mm 0.45 in11.4 mm
09:40 PM 34.4°F1.3°C 30.9°F-0.6°C 87% 10.0 mph NW16.1 kmh NW 10.0 mph16.1 kmh 29.96 in1014.6 mb 0.04 in1.0 mm 0.00 in0.0 mm 0.45 in11.4 mm
09:44 PM 34.2°F1.2°C 31.0°F-0.6°C 88% 3.0 mph WNW4.8 kmh WNW 10.0 mph16.1 kmh 29.96 in1014.6 mb 0.04 in1.0 mm 0.00 in0.0 mm 0.45 in11.4 mm
09:50 PM 34.1°F1.2°C 30.9°F-0.6°C 88% 2.0 mph NW3.2 kmh NW 6.0 mph9.7 kmh 29.96 in1014.6 mb 0.04 in1.0 mm 0.00 in0.0 mm 0.45 in11.4 mm
09:55 PM 34.0°F1.1°C 30.8°F-0.7°C 88% 10.0 mph NW16.1 kmh NW 15.0 mph24.1 kmh 29.96 in1014.6 mb 0.04 in1.0 mm 0.00 in0.0 mm 0.45 in11.4 mm
10:00 PM 33.6°F0.9°C 30.4°F-0.9°C 88% 5.0 mph WNW8.0 kmh WNW 13.0 mph20.9 kmh 29.96 in1014.6 mb 0.04 in1.0 mm 0.00 in0.0 mm 0.45 in11.4 mm
10:05 PM 33.4°F0.8°C 30.5°F-0.8°C 89% 7.0 mph NW11.3 kmh NW 13.0 mph20.9 kmh 29.97 in1014.9 mb 0.04 in1.0 mm 0.00 in0.0 mm 0.45 in11.4 mm
10:10 PM 33.3°F0.7°C 30.4°F-0.9°C 89% 6.0 mph W9.7 kmh W 11.0 mph17.7 kmh 29.97 in1014.9 mb 0.03 in0.8 mm 0.00 in0.0 mm 0.45 in11.4 mm
10:15 PM 33.1°F0.6°C 30.2°F-1.0°C 89% 14.0 mph NW22.5 kmh NW 16.0 mph25.7 kmh 29.97 in1014.9 mb 0.04 in1.0 mm 0.12 in3.0 mm 0.46 in11.7 mm
10:20 PM 33.0°F0.6°C 30.1°F-1.1°C 89% 3.0 mph W4.8 kmh W 9.0 mph14.5 kmh 29.99 in1015.6 mb 0.04 in1.0 mm 0.00 in0.0 mm 0.46 in11.7 mm
10:25 PM 32.9°F0.5°C 30.0°F-1.1°C 89% 8.0 mph NW12.9 kmh NW 11.0 mph17.7 kmh 30.01 in1016.3 mb 0.03 in0.8 mm 0.00 in0.0 mm 0.46 in11.7 mm
10:29 PM 32.8°F0.4°C 29.6°F-1.3°C 88% 12.0 mph WSW19.3 kmh WSW 13.0 mph20.9 kmh 30.02 in1016.6 mb 0.03 in0.8 mm 0.00 in0.0 mm 0.46 in11.7 mm
10:35 PM 32.6°F0.3°C 29.5°F-1.4°C 88% 3.0 mph WSW4.8 kmh WSW 9.0 mph14.5 kmh 30.02 in1016.6 mb 0.04 in1.0 mm 0.10 in2.5 mm 0.47 in11.9 mm
10:40 PM 32.3°F0.2°C 28.9°F-1.7°C 87% 4.0 mph NW6.4 kmh NW 12.0 mph19.3 kmh 30.02 in1016.6 mb 0.04 in1.0 mm 0.00 in0.0 mm 0.47 in11.9 mm
10:45 PM 32.1°F0.1°C 29.0°F-1.7°C 88% 8.0 mph WSW12.9 kmh WSW 13.0 mph20.9 kmh 30.03 in1016.9 mb 0.03 in0.8 mm 0.00 in0.0 mm 0.47 in11.9 mm
10:49 PM 32.0°F0.0°C 28.9°F-1.7°C 88% 4.0 mph WNW6.4 kmh WNW 13.0 mph20.9 kmh 30.02 in1016.6 mb 0.03 in0.8 mm 0.00 in0.0 mm 0.47 in11.9 mm
10:55 PM 31.9°F-0.1°C 28.8°F-1.8°C 88% 11.0 mph WNW17.7 kmh WNW 14.0 mph22.5 kmh 30.01 in1016.3 mb 0.03 in0.8 mm 0.00 in0.0 mm 0.47 in11.9 mm
11:00 PM 31.5°F-0.3°C 28.1°F-2.2°C 87% 4.0 mph NW6.4 kmh NW 18.0 mph29.0 kmh 30.03 in1016.9 mb 0.03 in0.8 mm 0.00 in0.0 mm 0.47 in11.9 mm
11:05 PM 31.4°F-0.3°C 28.0°F-2.2°C 87% 7.0 mph NW11.3 kmh NW 13.0 mph20.9 kmh 30.02 in1016.6 mb 0.03 in0.8 mm 0.00 in0.0 mm 0.47 in11.9 mm
11:10 PM 31.1°F-0.5°C 27.4°F-2.6°C 86% 11.0 mph NW17.7 kmh NW 14.0 mph22.5 kmh 30.03 in1016.9 mb 0.03 in0.8 mm 0.00 in0.0 mm 0.47 in11.9 mm
11:15 PM 30.7°F-0.7°C 26.7°F-2.9°C 85% 7.0 mph WNW11.3 kmh WNW 25.0 mph40.2 kmh 30.03 in1016.9 mb 0.04 in1.0 mm 0.12 in3.0 mm 0.48 in12.2 mm
11:20 PM 30.4°F-0.9°C 26.4°F-3.1°C 85% 9.0 mph W14.5 kmh W 16.0 mph25.7 kmh 30.06 in1017.9 mb 0.03 in0.8 mm 0.00 in0.0 mm 0.48 in12.2 mm
11:25 PM 30.2°F-1.0°C 26.2°F-3.2°C 85% 8.0 mph NW12.9 kmh NW 12.0 mph19.3 kmh 30.06 in1017.9 mb 0.03 in0.8 mm 0.00 in0.0 mm 0.48 in12.2 mm
11:30 PM 29.9°F-1.2°C 25.4°F-3.7°C 83% 4.0 mph W6.4 kmh W 13.0 mph20.9 kmh 30.07 in1018.3 mb 0.03 in0.8 mm 0.00 in0.0 mm 0.48 in12.2 mm
11:35 PM 29.7°F-1.3°C 24.9°F-3.9°C 82% 2.0 mph WSW3.2 kmh WSW 12.0 mph19.3 kmh 30.07 in1018.3 mb 0.03 in0.8 mm 0.00 in0.0 mm 0.48 in12.2 mm
11:40 PM 29.6°F-1.3°C 25.1°F-3.8°C 83% 3.0 mph WNW4.8 kmh WNW 15.0 mph24.1 kmh 30.07 in1018.3 mb 0.02 in0.5 mm 0.00 in0.0 mm 0.48 in12.2 mm
11:44 PM 29.2°F-1.6°C 24.7°F-4.1°C 83% 4.0 mph NW6.4 kmh NW 15.0 mph24.1 kmh 30.07 in1018.3 mb 0.02 in0.5 mm 0.00 in0.0 mm 0.48 in12.2 mm
11:50 PM 28.9°F-1.7°C 24.4°F-4.2°C 83% 12.0 mph NW19.3 kmh NW 19.0 mph30.6 kmh 30.08 in1018.6 mb 0.02 in0.5 mm 0.00 in0.0 mm 0.48 in12.2 mm
11:55 PM 28.7°F-1.8°C 23.9°F-4.5°C 82% 8.0 mph WNW12.9 kmh WNW 14.0 mph22.5 kmh 30.08 in1018.6 mb 0.02 in0.5 mm 0.00 in0.0 mm 0.48 in12.2 mm